sensor_id;sensor_type;location;lat;lon;timestamp;pressure;altitude;pressure_sealevel;temperature;humidity
54808;BME280;40708;50.364;7.550;2022-10-16T00:01:31;100240.03;;;14.66;100.00
54808;BME280;40708;50.364;7.550;2022-10-16T00:03:59;100233.81;;;14.66;100.00
54808;BME280;40708;50.364;7.550;2022-10-16T00:06:25;100242.66;;;14.69;100.00
54808;BME280;40708;50.364;7.550;2022-10-16T00:08:51;100233.66;;;14.73;100.00
54808;BME280;40708;50.364;7.550;2022-10-16T00:11:21;100248.72;;;14.77;100.00
54808;BME280;40708;50.364;7.550;2022-10-16T00:13:48;100244.13;;;14.84;100.00
54808;BME280;40708;50.364;7.550;2022-10-16T00:16:16;100242.31;;;14.86;100.00
54808;BME280;40708;50.364;7.550;2022-10-16T00:18:41;100242.22;;;14.90;100.00
54808;BME280;40708;50.364;7.550;2022-10-16T00:21:10;100237.69;;;14.94;100.00
54808;BME280;40708;50.364;7.550;2022-10-16T00:23:36;100228.75;;;14.97;100.00
54808;BME280;40708;50.364;7.550;2022-10-16T00:26:04;100223.28;;;15.01;100.00
54808;BME280;40708;50.364;7.550;2022-10-16T00:28:30;100223.28;;;15.01;100.00
54808;BME280;40708;50.364;7.550;2022-10-16T00:30:55;100237.50;;;15.03;100.00
54808;BME280;40708;50.364;7.550;2022-10-16T00:33:21;100232.19;;;15.02;100.00
54808;BME280;40708;50.364;7.550;2022-10-16T00:35:46;100222.28;;;15.08;100.00
54808;BME280;40708;50.364;7.550;2022-10-16T00:38:12;100226.69;;;15.09;100.00
54808;BME280;40708;50.364;7.550;2022-10-16T00:40:37;100227.50;;;15.13;100.00
54808;BME280;40708;50.364;7.550;2022-10-16T00:43:14;100221.09;;;15.21;100.00
54808;BME280;40708;50.364;7.550;2022-10-16T00:45:57;100223.59;;;15.27;100.00
54808;BME280;40708;50.364;7.550;2022-10-16T00:48:22;100228.09;;;15.27;100.00
54808;BME280;40708;50.364;7.550;2022-10-16T00:50:47;100240.47;;;15.31;100.00
54808;BME280;40708;50.364;7.550;2022-10-16T00:53:13;100241.28;;;15.33;100.00
54808;BME280;40708;50.364;7.550;2022-10-16T00:55:39;100246.56;;;15.37;100.00
54808;BME280;40708;50.364;7.550;2022-10-16T00:58:05;100226.91;;;15.38;100.00
54808;BME280;40708;50.364;7.550;2022-10-16T01:00:30;100199.16;;;15.44;100.00
54808;BME280;40708;50.364;7.550;2022-10-16T01:02:58;100181.34;;;15.46;100.00
54808;BME280;40708;50.364;7.550;2022-10-16T01:05:48;100176.03;;;15.43;100.00
54808;BME280;40708;50.364;7.550;2022-10-16T01:08:34;100193.13;;;15.36;100.00
54808;BME280;40708;50.364;7.550;2022-10-16T01:11:13;100211.75;;;15.40;100.00
54808;BME280;40708;50.364;7.550;2022-10-16T01:13:46;100218.81;;;15.41;100.00
54808;BME280;40708;50.364;7.550;2022-10-16T01:16:36;100218.03;;;15.38;100.00
54808;BME280;40708;50.364;7.550;2022-10-16T01:19:12;100219.84;;;15.36;100.00
54808;BME280;40708;50.364;7.550;2022-10-16T01:21:42;100216.31;;;15.35;100.00
54808;BME280;40708;50.364;7.550;2022-10-16T01:27:08;100213.53;;;15.40;100.00
54808;BME280;40708;50.364;7.550;2022-10-16T01:32:26;100214.47;;;15.37;100.00
54808;BME280;40708;50.364;7.550;2022-10-16T01:35:10;100210.09;;;15.35;100.00
54808;BME280;40708;50.364;7.550;2022-10-16T01:37:39;100202.97;;;15.34;100.00
54808;BME280;40708;50.364;7.550;2022-10-16T01:40:10;100203.88;;;15.33;100.00
54808;BME280;40708;50.364;7.550;2022-10-16T01:42:42;100212.88;;;15.29;100.00
54808;BME280;40708;50.364;7.550;2022-10-16T01:45:13;100214.72;;;15.27;100.00
54808;BME280;40708;50.364;7.550;2022-10-16T01:47:40;100220.03;;;15.28;100.00
54808;BME280;40708;50.364;7.550;2022-10-16T01:50:07;100221.72;;;15.32;100.00
54808;BME280;40708;50.364;7.550;2022-10-16T01:52:36;100226.13;;;15.33;100.00
54808;BME280;40708;50.364;7.550;2022-10-16T01:55:05;100222.59;;;15.33;100.00
54808;BME280;40708;50.364;7.550;2022-10-16T01:57:32;100220.84;;;15.32;100.00
54808;BME280;40708;50.364;7.550;2022-10-16T02:00:05;100215.38;;;15.36;100.00
54808;BME280;40708;50.364;7.550;2022-10-16T02:02:32;100205.63;;;15.35;100.00
54808;BME280;40708;50.364;7.550;2022-10-16T02:05:03;100216.22;;;15.38;100.00
54808;BME280;40708;50.364;7.550;2022-10-16T02:07:30;100229.69;;;15.35;100.00
54808;BME280;40708;50.364;7.550;2022-10-16T02:09:55;100225.25;;;15.34;100.00
54808;BME280;40708;50.364;7.550;2022-10-16T02:12:27;100232.25;;;15.38;100.00
54808;BME280;40708;50.364;7.550;2022-10-16T02:14:53;100239.31;;;15.41;100.00
54808;BME280;40708;50.364;7.550;2022-10-16T02:17:19;100231.25;;;15.44;100.00
54808;BME280;40708;50.364;7.550;2022-10-16T02:19:46;100236.47;;;15.52;100.00
54808;BME280;40708;50.364;7.550;2022-10-16T02:22:18;100232.94;;;15.49;100.00
54808;BME280;40708;50.364;7.550;2022-10-16T02:24:52;100242.72;;;15.51;100.00
54808;BME280;40708;50.364;7.550;2022-10-16T02:27:30;100242.72;;;15.51;100.00
54808;BME280;40708;50.364;7.550;2022-10-16T02:32:46;100253.34;;;15.54;100.00
54808;BME280;40708;50.364;7.550;2022-10-16T02:35:13;100247.25;;;15.45;100.00
54808;BME280;40708;50.364;7.550;2022-10-16T02:37:40;100238.44;;;15.42;100.00
54808;BME280;40708;50.364;7.550;2022-10-16T02:40:06;100242.88;;;15.43;100.00
54808;BME280;40708;50.364;7.550;2022-10-16T02:42:37;100241.16;;;15.40;100.00
54808;BME280;40708;50.364;7.550;2022-10-16T02:45:04;100228.78;;;15.35;100.00
54808;BME280;40708;50.364;7.550;2022-10-16T02:47:30;100223.50;;;15.32;100.00
54808;BME280;40708;50.364;7.550;2022-10-16T02:49:55;100231.59;;;15.29;100.00
54808;BME280;40708;50.364;7.550;2022-10-16T02:52:21;100250.31;;;15.29;100.00
54808;BME280;40708;50.364;7.550;2022-10-16T02:54:46;100245.78;;;15.32;100.00
54808;BME280;40708;50.364;7.550;2022-10-16T02:57:11;100228.28;;;15.18;100.00
54808;BME280;40708;50.364;7.550;2022-10-16T02:59:37;100232.75;;;15.17;100.00
54808;BME280;40708;50.364;7.550;2022-10-16T03:02:02;100230.91;;;15.19;100.00
54808;BME280;40708;50.364;7.550;2022-10-16T03:04:28;100230.94;;;15.18;100.00
54808;BME280;40708;50.364;7.550;2022-10-16T03:06:53;100234.59;;;15.14;100.00
54808;BME280;40708;50.364;7.550;2022-10-16T03:09:18;100222.28;;;15.08;100.00
54808;BME280;40708;50.364;7.550;2022-10-16T03:11:44;100244.56;;;15.06;100.00
54808;BME280;40708;50.364;7.550;2022-10-16T03:14:09;100253.53;;;15.03;100.00
54808;BME280;40708;50.364;7.550;2022-10-16T03:16:34;100258.03;;;15.01;100.00
54808;BME280;40708;50.364;7.550;2022-10-16T03:18:59;100267.88;;;14.99;100.00
54808;BME280;40708;50.364;7.550;2022-10-16T03:21:25;100262.53;;;14.99;100.00
54808;BME280;40708;50.364;7.550;2022-10-16T03:23:50;100267.03;;;14.97;100.00
54808;BME280;40708;50.364;7.550;2022-10-16T03:26:15;100272.44;;;14.93;100.00
54808;BME280;40708;50.364;7.550;2022-10-16T03:28:40;100287.66;;;14.89;100.00
54808;BME280;40708;50.364;7.550;2022-10-16T03:31:06;100288.50;;;14.91;100.00
54808;BME280;40708;50.364;7.550;2022-10-16T03:33:31;100288.63;;;14.86;100.00
54808;BME280;40708;50.364;7.550;2022-10-16T03:35:56;100288.53;;;14.89;100.00
54808;BME280;40708;50.364;7.550;2022-10-16T03:38:22;100288.50;;;14.91;100.00
54808;BME280;40708;50.364;7.550;2022-10-16T03:40:47;100292.81;;;14.98;100.00
54808;BME280;40708;50.364;7.550;2022-10-16T03:43:12;100303.50;;;14.98;100.00
54808;BME280;40708;50.364;7.550;2022-10-16T03:45:38;100299.00;;;15.00;100.00
54808;BME280;40708;50.364;7.550;2022-10-16T03:48:03;100298.94;;;15.05;100.00
54808;BME280;40708;50.364;7.550;2022-10-16T03:50:29;100298.94;;;15.05;100.00
54808;BME280;40708;50.364;7.550;2022-10-16T03:52:54;100302.50;;;15.04;100.00
54808;BME280;40708;50.364;7.550;2022-10-16T03:55:20;100301.50;;;15.09;100.00
54808;BME280;40708;50.364;7.550;2022-10-16T03:57:45;100300.59;;;15.09;100.00
54808;BME280;40708;50.364;7.550;2022-10-16T04:00:11;100295.31;;;15.06;100.00
54808;BME280;40708;50.364;7.550;2022-10-16T04:02:36;100305.09;;;15.07;100.00
54808;BME280;40708;50.364;7.550;2022-10-16T04:05:03;100301.56;;;15.06;100.00
54808;BME280;40708;50.364;7.550;2022-10-16T04:07:28;100305.16;;;15.05;100.00
54808;BME280;40708;50.364;7.550;2022-10-16T04:09:53;100306.00;;;15.06;100.00
54808;BME280;40708;50.364;7.550;2022-10-16T04:12:19;100311.41;;;15.04;100.00
54808;BME280;40708;50.364;7.550;2022-10-16T04:14:44;100312.34;;;15.00;100.00
54808;BME280;40708;50.364;7.550;2022-10-16T04:17:09;100305.22;;;15.02;100.00
54808;BME280;40708;50.364;7.550;2022-10-16T04:19:35;100304.44;;;14.97;100.00
54808;BME280;40708;50.364;7.550;2022-10-16T04:22:00;100303.53;;;14.97;100.00
54808;BME280;40708;50.364;7.550;2022-10-16T04:24:25;100306.31;;;14.90;100.00
54808;BME280;40708;50.364;7.550;2022-10-16T04:26:50;100316.19;;;14.87;100.00
54808;BME280;40708;50.364;7.550;2022-10-16T04:29:16;100311.72;;;14.87;100.00
54808;BME280;40708;50.364;7.550;2022-10-16T04:31:41;100324.19;;;14.88;100.00
54808;BME280;40708;50.364;7.550;2022-10-16T04:34:06;100310.81;;;14.88;100.00
54808;BME280;40708;50.364;7.550;2022-10-16T04:36:31;100309.97;;;14.86;100.00
54808;BME280;40708;50.364;7.550;2022-10-16T04:38:57;100302.88;;;14.84;100.00
54808;BME280;40708;50.364;7.550;2022-10-16T04:41:22;100299.41;;;14.80;100.00
54808;BME280;40708;50.364;7.550;2022-10-16T04:43:47;100294.97;;;14.79;100.00
54808;BME280;40708;50.364;7.550;2022-10-16T04:46:13;100303.03;;;14.76;100.00
54808;BME280;40708;50.364;7.550;2022-10-16T04:48:38;100326.28;;;14.71;100.00
54808;BME280;40708;50.364;7.550;2022-10-16T04:51:03;100337.00;;;14.68;100.00
54808;BME280;40708;50.364;7.550;2022-10-16T04:53:29;100342.34;;;14.70;100.00
54808;BME280;40708;50.364;7.550;2022-10-16T04:55:54;100352.19;;;14.66;100.00
54808;BME280;40708;50.364;7.550;2022-10-16T04:58:19;100331.84;;;14.59;100.00
54808;BME280;40708;50.364;7.550;2022-10-16T05:00:45;100335.31;;;14.64;100.00
54808;BME280;40708;50.364;7.550;2022-10-16T05:03:12;100327.31;;;14.63;100.00
54808;BME280;40708;50.364;7.550;2022-10-16T05:05:42;100314.81;;;14.65;100.00
54808;BME280;40708;50.364;7.550;2022-10-16T05:08:09;100323.69;;;14.65;100.00
54808;BME280;40708;50.364;7.550;2022-10-16T05:10:35;100344.16;;;14.66;100.00
54808;BME280;40708;50.364;7.550;2022-10-16T05:13:00;100328.03;;;14.72;100.00
54808;BME280;40708;50.364;7.550;2022-10-16T05:15:25;100320.00;;;14.74;100.00
54808;BME280;40708;50.364;7.550;2022-10-16T05:17:54;100317.22;;;14.78;100.00
54808;BME280;40708;50.364;7.550;2022-10-16T05:20:20;100312.03;;;14.72;100.00
54808;BME280;40708;50.364;7.550;2022-10-16T05:22:45;100309.31;;;14.74;100.00
54808;BME280;40708;50.364;7.550;2022-10-16T05:25:10;100306.59;;;14.77;100.00
54808;BME280;40708;50.364;7.550;2022-10-16T05:27:35;100323.56;;;14.74;100.00
54808;BME280;40708;50.364;7.550;2022-10-16T05:30:01;100332.44;;;14.75;100.00
54808;BME280;40708;50.364;7.550;2022-10-16T05:32:26;100315.59;;;14.71;100.00
54808;BME280;40708;50.364;7.550;2022-10-16T05:34:51;100316.47;;;14.72;100.00
54808;BME280;40708;50.364;7.550;2022-10-16T05:37:17;100325.38;;;14.72;100.00
54808;BME280;40708;50.364;7.550;2022-10-16T05:39:42;100333.34;;;14.74;100.00
54808;BME280;40708;50.364;7.550;2022-10-16T05:42:07;100335.13;;;14.73;100.00
54808;BME280;40708;50.364;7.550;2022-10-16T05:44:33;100337.88;;;14.69;100.00
54808;BME280;40708;50.364;7.550;2022-10-16T05:46:58;100364.97;;;14.48;100.00
54808;BME280;40708;50.364;7.550;2022-10-16T05:49:23;100372.13;;;14.46;100.00
54808;BME280;40708;50.364;7.550;2022-10-16T05:51:49;100365.00;;;14.45;100.00
54808;BME280;40708;50.364;7.550;2022-10-16T05:54:14;100359.59;;;14.49;100.00
54808;BME280;40708;50.364;7.550;2022-10-16T05:56:39;100355.22;;;14.44;100.00
54808;BME280;40708;50.364;7.550;2022-10-16T05:59:05;100361.47;;;14.44;100.00
54808;BME280;40708;50.364;7.550;2022-10-16T06:01:31;100356.88;;;14.54;100.00
54808;BME280;40708;50.364;7.550;2022-10-16T06:03:57;100366.59;;;14.56;100.00
54808;BME280;40708;50.364;7.550;2022-10-16T06:06:23;100363.00;;;14.59;100.00
54808;BME280;40708;50.364;7.550;2022-10-16T06:08:51;100369.16;;;14.62;100.00
54808;BME280;40708;50.364;7.550;2022-10-16T06:11:22;100377.16;;;14.64;100.00
54808;BME280;40708;50.364;7.550;2022-10-16T06:13:52;100374.47;;;14.64;100.00
54808;BME280;40708;50.364;7.550;2022-10-16T06:16:18;100371.75;;;14.67;100.00
54808;BME280;40708;50.364;7.550;2022-10-16T06:18:44;100379.72;;;14.70;100.00
54808;BME280;40708;50.364;7.550;2022-10-16T06:21:11;100367.25;;;14.69;100.00
54808;BME280;40708;50.364;7.550;2022-10-16T06:23:37;100370.06;;;14.61;100.00
54808;BME280;40708;50.364;7.550;2022-10-16T06:26:11;100369.97;;;14.66;100.00
54808;BME280;40708;50.364;7.550;2022-10-16T06:28:37;100372.75;;;14.60;100.00
54808;BME280;40708;50.364;7.550;2022-10-16T06:31:04;100386.06;;;14.63;100.00
54808;BME280;40708;50.364;7.550;2022-10-16T06:33:29;100385.16;;;14.62;100.00
54808;BME280;40708;50.364;7.550;2022-10-16T06:36:06;100394.88;;;14.68;100.00
54808;BME280;40708;50.364;7.550;2022-10-16T06:38:33;100396.59;;;14.70;100.00
54808;BME280;40708;50.364;7.550;2022-10-16T06:40:59;100404.59;;;14.72;100.00
54808;BME280;40708;50.364;7.550;2022-10-16T06:43:24;100404.56;;;14.73;100.00
54808;BME280;40708;50.364;7.550;2022-10-16T06:45:54;100409.84;;;14.78;100.00
54808;BME280;40708;50.364;7.550;2022-10-16T06:48:20;100415.97;;;14.83;100.00
54808;BME280;40708;50.364;7.550;2022-10-16T06:51:10;100426.66;;;14.83;100.00
54808;BME280;40708;50.364;7.550;2022-10-16T06:53:37;100436.38;;;14.88;100.00
54808;BME280;40708;50.364;7.550;2022-10-16T06:56:18;100439.97;;;14.86;100.00
54808;BME280;40708;50.364;7.550;2022-10-16T06:58:44;100442.50;;;14.92;100.00
54808;BME280;40708;50.364;7.550;2022-10-16T07:01:11;100445.09;;;14.98;100.00
54808;BME280;40708;50.364;7.550;2022-10-16T07:03:38;100450.44;;;14.98;100.00
54808;BME280;40708;50.364;7.550;2022-10-16T07:06:04;100455.88;;;14.92;100.00
54808;BME280;40708;50.364;7.550;2022-10-16T07:08:34;100473.56;;;14.99;100.00
54808;BME280;40708;50.364;7.550;2022-10-16T07:11:05;100470.78;;;15.07;100.00
54808;BME280;40708;50.364;7.550;2022-10-16T07:13:33;100452.06;;;15.08;100.00
54808;BME280;40708;50.364;7.550;2022-10-16T07:16:14;100454.63;;;15.13;100.00
54808;BME280;40708;50.364;7.550;2022-10-16T07:18:40;100461.72;;;15.14;100.00
54808;BME280;40708;50.364;7.550;2022-10-16T07:21:09;100466.06;;;15.21;100.00
54808;BME280;40708;50.364;7.550;2022-10-16T07:23:35;100461.47;;;15.27;100.00
54808;BME280;40708;50.364;7.550;2022-10-16T07:26:00;100451.56;;;15.34;100.00
54808;BME280;40708;50.364;7.550;2022-10-16T07:28:26;100458.59;;;15.39;100.00
54808;BME280;40708;50.364;7.550;2022-10-16T07:30:51;100467.44;;;15.43;100.00
54808;BME280;40708;50.364;7.550;2022-10-16T07:33:16;100461.94;;;15.52;100.00
54808;BME280;40708;50.364;7.550;2022-10-16T07:35:50;100477.16;;;15.48;100.00
54808;BME280;40708;50.364;7.550;2022-10-16T07:38:15;100476.03;;;15.60;100.00
54808;BME280;40708;50.364;7.550;2022-10-16T07:40:40;100471.78;;;15.52;100.00
54808;BME280;40708;50.364;7.550;2022-10-16T07:43:05;100470.72;;;15.59;100.00
54808;BME280;40708;50.364;7.550;2022-10-16T07:45:31;100475.97;;;15.63;100.00
54808;BME280;40708;50.364;7.550;2022-10-16T07:47:56;100482.16;;;15.67;100.00
54808;BME280;40708;50.364;7.550;2022-10-16T07:50:21;100476.63;;;15.76;100.00
54808;BME280;40708;50.364;7.550;2022-10-16T07:52:46;100484.72;;;15.73;100.00
54808;BME280;40708;50.364;7.550;2022-10-16T07:55:12;100481.94;;;15.79;100.00
54808;BME280;40708;50.364;7.550;2022-10-16T07:57:37;100487.78;;;15.97;100.00
54808;BME280;40708;50.364;7.550;2022-10-16T08:00:03;100492.00;;;16.07;100.00
54808;BME280;40708;50.364;7.550;2022-10-16T08:02:28;100483.75;;;16.18;100.00
54808;BME280;40708;50.364;7.550;2022-10-16T08:04:53;100482.53;;;16.33;100.00
54808;BME280;40708;50.364;7.550;2022-10-16T08:07:19;100507.47;;;16.35;100.00
54808;BME280;40708;50.364;7.550;2022-10-16T08:09:44;100511.69;;;16.46;100.00
54808;BME280;40708;50.364;7.550;2022-10-16T08:12:09;100509.03;;;16.45;100.00
54808;BME280;40708;50.364;7.550;2022-10-16T08:14:35;100509.16;;;16.39;100.00
54808;BME280;40708;50.364;7.550;2022-10-16T08:17:01;100509.97;;;16.42;100.00
54808;BME280;40708;50.364;7.550;2022-10-16T08:19:27;100517.56;;;16.63;100.00
54808;BME280;40708;50.364;7.550;2022-10-16T08:21:52;100520.81;;;16.78;100.00
54808;BME280;40708;50.364;7.550;2022-10-16T08:24:18;100521.50;;;16.86;100.00
54808;BME280;40708;50.364;7.550;2022-10-16T08:26:43;100524.69;;;17.01;100.00
54808;BME280;40708;50.364;7.550;2022-10-16T08:29:08;100524.81;;;16.97;100.00
54808;BME280;40708;50.364;7.550;2022-10-16T08:31:33;100528.03;;;17.11;100.00
54808;BME280;40708;50.364;7.550;2022-10-16T08:33:59;100523.97;;;17.30;100.00
54808;BME280;40708;50.364;7.550;2022-10-16T08:36:25;100522.84;;;17.39;100.00
54808;BME280;40708;50.364;7.550;2022-10-16T08:38:50;100534.69;;;17.30;100.00
54808;BME280;40708;50.364;7.550;2022-10-16T08:44:25;100551.84;;;17.23;100.00
54808;BME280;40708;50.364;7.550;2022-10-16T08:47:19;100550.28;;;17.14;100.00
54808;BME280;40708;50.364;7.550;2022-10-16T08:50:09;100553.81;;;17.16;100.00
54808;BME280;40708;50.364;7.550;2022-10-16T08:52:39;100558.41;;;17.11;100.00
54808;BME280;40708;50.364;7.550;2022-10-16T08:55:05;100555.59;;;17.17;100.00
54808;BME280;40708;50.364;7.550;2022-10-16T08:57:31;100550.16;;;17.19;100.00
54808;BME280;40708;50.364;7.550;2022-10-16T09:00:08;100554.72;;;17.15;100.00
54808;BME280;40708;50.364;7.550;2022-10-16T09:03:13;100551.97;;;17.55;100.00
54808;BME280;40708;50.364;7.550;2022-10-16T09:11:00;100545.28;;;18.02;100.00
54808;BME280;40708;50.364;7.550;2022-10-16T09:13:37;100543.06;;;18.16;100.00
54808;BME280;40708;50.364;7.550;2022-10-16T09:16:32;100552.50;;;18.00;100.00
54808;BME280;40708;50.364;7.550;2022-10-16T09:19:14;100554.13;;;18.36;100.00
54808;BME280;40708;50.364;7.550;2022-10-16T09:21:44;100559.19;;;18.47;100.00
54808;BME280;40708;50.364;7.550;2022-10-16T09:24:13;100560.31;;;18.08;100.00
54808;BME280;40708;50.364;7.550;2022-10-16T09:26:39;100560.13;;;18.15;100.00
54808;BME280;40708;50.364;7.550;2022-10-16T09:29:04;100565.91;;;18.02;100.00
54808;BME280;40708;50.364;7.550;2022-10-16T09:31:30;100566.94;;;18.27;100.00
54808;BME280;40708;50.364;7.550;2022-10-16T09:33:59;100565.38;;;18.20;100.00
54808;BME280;40708;50.364;7.550;2022-10-16T09:36:27;100566.56;;;18.10;100.00
54808;BME280;40708;50.364;7.550;2022-10-16T09:39:05;100573.06;;;18.01;100.00
54808;BME280;40708;50.364;7.550;2022-10-16T09:41:37;100561.06;;;18.13;100.00
54808;BME280;40708;50.364;7.550;2022-10-16T09:44:06;100567.09;;;18.21;100.00
54808;BME280;40708;50.364;7.550;2022-10-16T09:46:40;100557.78;;;18.34;100.00
54808;BME280;40708;50.364;7.550;2022-10-16T09:49:25;100563.56;;;18.51;100.00
54808;BME280;40708;50.364;7.550;2022-10-16T09:52:05;100570.38;;;18.63;100.00
54808;BME280;40708;50.364;7.550;2022-10-16T09:54:30;100560.03;;;18.78;100.00
54808;BME280;40708;50.364;7.550;2022-10-16T09:57:07;100562.53;;;18.84;100.00
54808;BME280;40708;50.364;7.550;2022-10-16T09:59:33;100559.75;;;18.87;100.00
54808;BME280;40708;50.364;7.550;2022-10-16T10:02:02;100556.34;;;18.81;100.00
54808;BME280;40708;50.364;7.550;2022-10-16T10:04:39;100541.03;;;18.84;100.00
54808;BME280;40708;50.364;7.550;2022-10-16T10:07:17;100545.56;;;19.36;100.00
54808;BME280;40708;50.364;7.550;2022-10-16T10:09:45;100538.78;;;20.02;100.00
54808;BME280;40708;50.364;7.550;2022-10-16T10:12:21;100537.75;;;20.54;100.00
54808;BME280;40708;50.364;7.550;2022-10-16T10:14:48;100525.41;;;20.70;100.00
54808;BME280;40708;50.364;7.550;2022-10-16T10:19:55;100528.88;;;20.73;100.00
54808;BME280;40708;50.364;7.550;2022-10-16T10:22:40;100540.09;;;20.15;100.00
54808;BME280;40708;50.364;7.550;2022-10-16T10:30:32;100519.34;;;20.17;100.00
54808;BME280;40708;50.364;7.550;2022-10-16T10:35:49;100520.75;;;20.29;100.00
54808;BME280;40708;50.364;7.550;2022-10-16T10:41:22;100513.06;;;20.64;100.00
54808;BME280;40708;50.364;7.550;2022-10-16T10:46:57;100494.44;;;21.02;100.00
54808;BME280;40708;50.364;7.550;2022-10-16T10:55:35;100490.66;;;22.84;100.00
54808;BME280;40708;50.364;7.550;2022-10-16T10:58:07;100475.75;;;22.57;100.00
54808;BME280;40708;50.364;7.550;2022-10-16T11:03:35;100480.19;;;22.39;100.00
54808;BME280;40708;50.364;7.550;2022-10-16T11:06:08;100483.72;;;22.79;100.00
54808;BME280;40708;50.364;7.550;2022-10-16T11:08:43;100483.09;;;23.09;100.00
54808;BME280;40708;50.364;7.550;2022-10-16T11:11:28;100488.13;;;22.81;100.00
54808;BME280;40708;50.364;7.550;2022-10-16T11:14:01;100499.09;;;22.21;100.00
54808;BME280;40708;50.364;7.550;2022-10-16T11:16:30;100492.38;;;22.68;100.00
54808;BME280;40708;50.364;7.550;2022-10-16T11:19:26;100490.41;;;22.72;100.00
54808;BME280;40708;50.364;7.550;2022-10-16T11:22:17;100484.91;;;23.45;100.00
54808;BME280;40708;50.364;7.550;2022-10-16T11:27:19;100481.28;;;23.10;100.00
54808;BME280;40708;50.364;7.550;2022-10-16T11:29:58;100478.88;;;23.04;100.00
54808;BME280;40708;50.364;7.550;2022-10-16T11:32:35;100491.31;;;22.33;100.00
54808;BME280;40708;50.364;7.550;2022-10-16T11:35:17;100496.31;;;22.04;100.00
54808;BME280;40708;50.364;7.550;2022-10-16T11:37:44;100493.16;;;22.51;100.00
54808;BME280;40708;50.364;7.550;2022-10-16T11:40:31;100474.66;;;23.16;100.00
54808;BME280;40708;50.364;7.550;2022-10-16T11:43:06;100476.16;;;23.04;100.00
54808;BME280;40708;50.364;7.550;2022-10-16T11:45:54;100494.16;;;22.49;100.00
54808;BME280;40708;50.364;7.550;2022-10-16T11:48:29;100485.34;;;22.83;100.00
54808;BME280;40708;50.364;7.550;2022-10-16T11:51:06;100480.69;;;23.03;100.00
54808;BME280;40708;50.364;7.550;2022-10-16T11:55:58;100487.09;;;23.20;100.00
54808;BME280;40708;50.364;7.550;2022-10-16T11:58:33;100483.94;;;22.93;100.00
54808;BME280;40708;50.364;7.550;2022-10-16T12:01:26;100484.38;;;22.84;100.00
54808;BME280;40708;50.364;7.550;2022-10-16T12:04:17;100470.56;;;23.43;100.00
54808;BME280;40708;50.364;7.550;2022-10-16T12:06:51;100474.72;;;23.67;100.00
54808;BME280;40708;50.364;7.550;2022-10-16T12:09:26;100477.41;;;22.97;100.00
54808;BME280;40708;50.364;7.550;2022-10-16T12:11:51;100484.66;;;22.40;100.00
54808;BME280;40708;50.364;7.550;2022-10-16T12:16:59;100488.63;;;22.52;100.00
54808;BME280;40708;50.364;7.550;2022-10-16T12:19:26;100490.81;;;22.63;100.00
54808;BME280;40708;50.364;7.550;2022-10-16T12:21:55;100495.16;;;22.85;100.00
54808;BME280;40708;50.364;7.550;2022-10-16T12:24:36;100485.41;;;22.81;100.00
54808;BME280;40708;50.364;7.550;2022-10-16T12:27:05;100488.25;;;22.78;100.00
54808;BME280;40708;50.364;7.550;2022-10-16T12:29:41;100494.81;;;23.10;100.00
54808;BME280;40708;50.364;7.550;2022-10-16T12:32:40;100481.47;;;23.41;100.00
54808;BME280;40708;50.364;7.550;2022-10-16T12:35:17;100481.63;;;23.38;100.00
54808;BME280;40708;50.364;7.550;2022-10-16T12:37:45;100493.19;;;23.42;100.00
54808;BME280;40708;50.364;7.550;2022-10-16T12:40:32;100502.75;;;23.13;100.00
54808;BME280;40708;50.364;7.550;2022-10-16T12:42:58;100514.50;;;22.95;100.00
54808;BME280;40708;50.364;7.550;2022-10-16T12:45:32;100518.50;;;22.49;100.00
54808;BME280;40708;50.364;7.550;2022-10-16T12:48:04;100512.75;;;22.18;100.00
54808;BME280;40708;50.364;7.550;2022-10-16T12:52:58;100507.16;;;22.22;100.00
54808;BME280;40708;50.364;7.550;2022-10-16T12:55:23;100503.84;;;22.16;100.00
54808;BME280;40708;50.364;7.550;2022-10-16T13:00:58;100518.09;;;21.59;100.00
54808;BME280;40708;50.364;7.550;2022-10-16T13:03:53;100515.75;;;21.51;100.00
54808;BME280;40708;50.364;7.550;2022-10-16T13:12:15;100516.81;;;21.47;100.00
54808;BME280;40708;50.364;7.550;2022-10-16T13:20:51;100530.97;;;21.94;100.00
54808;BME280;40708;50.364;7.550;2022-10-16T13:23:29;100529.72;;;22.21;100.00
54808;BME280;40708;50.364;7.550;2022-10-16T13:28:45;100516.09;;;22.43;100.00
54808;BME280;40708;50.364;7.550;2022-10-16T13:31:22;100510.09;;;22.55;100.00
54808;BME280;40708;50.364;7.550;2022-10-16T13:33:58;100511.69;;;22.40;100.00
54808;BME280;40708;50.364;7.550;2022-10-16T13:36:42;100506.19;;;22.23;100.00
54808;BME280;40708;50.364;7.550;2022-10-16T13:39:14;100500.50;;;22.29;100.00
54808;BME280;40708;50.364;7.550;2022-10-16T13:41:42;100506.38;;;22.20;100.00
54808;BME280;40708;50.364;7.550;2022-10-16T13:44:14;100507.91;;;22.44;100.00
54808;BME280;40708;50.364;7.550;2022-10-16T13:46:40;100516.31;;;22.38;100.00
54808;BME280;40708;50.364;7.550;2022-10-16T13:49:16;100510.41;;;22.10;100.00
54808;BME280;40708;50.364;7.550;2022-10-16T13:51:54;100513.25;;;22.07;100.00
54808;BME280;40708;50.364;7.550;2022-10-16T13:54:19;100515.78;;;22.30;100.00
54808;BME280;40708;50.364;7.550;2022-10-16T13:56:44;100509.88;;;22.41;100.00
54808;BME280;40708;50.364;7.550;2022-10-16T13:59:32;100520.09;;;21.96;100.00
54808;BME280;40708;50.364;7.550;2022-10-16T14:01:58;100511.69;;;21.81;100.00
54808;BME280;40708;50.364;7.550;2022-10-16T14:04:32;100510.31;;;21.93;100.00